^^
Station Historical Data
Daily Summary for Nil La, TWC- Units:  English    Metric   Both
« Previous Day
Next Day »
Daily Weekly Monthly Yearly Custom
  High: Low: Average:
Temperature: TemperatureF °F 42.1 °F 50 °F
Dew Point: DewpointF °F 28.8 °F 34.5 °F
Humidity: Humidity% 30% 56%
Wind Speed: WindSpeedMPHmph 0.0mph 1mph
Wind Gust: WindSpeedGustMPHmph - -
Wind- - East
Pressure: PressureIn in 30.07 in -
Precipitation: 0.00 in    
Historical Graphs
 
 
Tabular Data for Nil La, TWC-
Time Temperature Dew Point Pressure Wind Wind Speed Wind Gust Humidity Rainfall Rate (Hourly) solar Conditions
TemperatureF °F DewpointF °F PressureIn in Calm     Humidity% HourlyPrecipIn in SolarRadiationWatts/m^2 W/m2 Conditions
00:04 48.6 °F 30.2 °F 30.09 in East 2.0 mph 2.0 mph 49% 0.00 in 0.0 W/m2
00:09 48.4 °F 30.0 °F 30.09 in Calm   2.0 mph 49% 0.00 in 0.0 W/m2
00:14 48.4 °F 30.0 °F 30.09 in Calm   2.0 mph 49% 0.00 in 0.0 W/m2
00:19 48.4 °F 31.1 °F 30.09 in Calm   1.0 mph 51% 0.00 in 0.0 W/m2
00:24 48.2 °F 30.0 °F 30.09 in Calm   2.0 mph 49% 0.00 in 0.0 W/m2
00:29 48.0 °F 30.2 °F 30.09 in Calm   2.0 mph 50% 0.00 in 0.0 W/m2
00:34 48.0 °F 29.8 °F 30.09 in Calm   2.0 mph 49% 0.00 in 0.0 W/m2
00:40 47.8 °F 30.6 °F 30.09 in Calm     51% 0.00 in 0.0 W/m2
00:45 47.7 °F 30.4 °F 30.09 in Calm   3.0 mph 51% 0.00 in 0.0 W/m2
00:50 47.5 °F 30.2 °F 30.09 in Calm   3.0 mph 51% 0.00 in 0.0 W/m2
00:56 47.3 °F 30.0 °F 30.09 in Calm   3.0 mph 51% 0.00 in 0.0 W/m2
01:01 47.1 °F 30.4 °F 30.09 in East 0.9 mph 3.0 mph 52% 0.00 in 0.0 W/m2
01:06 46.9 °F 29.8 °F 30.09 in East 0.9 mph 4.0 mph 51% 0.00 in 0.0 W/m2
01:11 46.8 °F 29.7 °F 30.09 in Calm   3.0 mph 51% 0.00 in 0.0 W/m2
01:16 46.8 °F 29.1 °F 30.09 in Calm   2.0 mph 50% 0.00 in 0.0 W/m2
01:21 46.8 °F 29.1 °F 30.09 in East 2.0 mph 3.0 mph 50% 0.00 in 0.0 W/m2
01:26 46.9 °F 28.8 °F 30.10 in East 0.9 mph 4.0 mph 49% 0.00 in 0.0 W/m2
01:31 47.1 °F 28.9 °F 30.09 in Calm   2.0 mph 49% 0.00 in 0.0 W/m2
01:37 47.5 °F 29.3 °F 30.09 in Calm   1.0 mph 49% 0.00 in 0.0 W/m2
01:42 47.5 °F 29.8 °F 30.09 in Calm   2.0 mph 50% 0.00 in 0.0 W/m2
01:47 47.3 °F 30.6 °F 30.09 in Calm   1.0 mph 52% 0.00 in 0.0 W/m2
01:52 47.1 °F 31.8 °F 30.09 in Calm     55% 0.00 in 0.0 W/m2
01:57 46.8 °F 31.8 °F 30.09 in Calm     56% 0.00 in 0.0 W/m2
02:02 46.6 °F 32.5 °F 30.09 in Calm     58% 0.00 in 0.0 W/m2
02:07 46.2 °F 31.5 °F 30.09 in Calm   2.0 mph 56% 0.00 in 0.0 W/m2
02:12 45.9 °F 32.0 °F 30.09 in Calm     58% 0.00 in 0.0 W/m2
02:18 45.7 °F 32.2 °F 30.09 in Calm   1.0 mph 59% 0.00 in 0.0 W/m2
02:23 45.1 °F 31.6 °F 30.09 in Calm     59% 0.00 in 0.0 W/m2
02:28 45.0 °F 31.5 °F 30.09 in Calm   1.0 mph 59% 0.00 in 0.0 W/m2
02:34 45.0 °F 31.5 °F 30.09 in Calm   2.0 mph 59% 0.00 in 0.0 W/m2
02:39 45.0 °F 29.8 °F 30.09 in ESE 2.0 mph 3.0 mph 55% 0.00 in 0.0 W/m2
02:44 45.5 °F 29.8 °F 30.09 in SE 2.0 mph 3.0 mph 54% 0.00 in 0.0 W/m2
02:49 45.9 °F 30.2 °F 30.09 in Calm   1.0 mph 54% 0.00 in 0.0 W/m2
02:54 46.0 °F 30.4 °F 30.09 in ESE 2.0 mph 3.0 mph 54% 0.00 in 0.0 W/m2
03:00 46.2 °F 30.6 °F 30.08 in Calm   2.0 mph 54% 0.00 in 0.0 W/m2
03:05 46.2 °F 30.9 °F 30.08 in Calm   3.0 mph 55% 0.00 in 0.0 W/m2
03:09 46.6 °F 31.6 °F 30.08 in East 2.0 mph 2.0 mph 56% 0.00 in 0.0 W/m2
03:14 46.6 °F 31.3 °F 30.08 in Calm   3.0 mph 55% 0.00 in 0.0 W/m2
03:19 46.9 °F 31.1 °F 30.08 in SE 2.9 mph 6.0 mph 54% 0.00 in 0.0 W/m2
03:24 47.1 °F 30.9 °F 30.08 in SE 0.9 mph 3.0 mph 53% 0.00 in 0.0 W/m2
03:29 47.1 °F 31.3 °F 30.08 in Calm   1.0 mph 54% 0.00 in 0.0 W/m2
03:34 46.9 °F 32.5 °F 30.08 in Calm   1.0 mph 57% 0.00 in 0.0 W/m2
03:40 46.6 °F 31.6 °F 30.08 in Calm   3.0 mph 56% 0.00 in 0.0 W/m2
03:45 46.2 °F 31.5 °F 30.08 in Calm   3.0 mph 56% 0.00 in 0.0 W/m2
03:50 46.2 °F 31.8 °F 30.08 in Calm   1.0 mph 57% 0.00 in 0.0 W/m2
03:56 46.0 °F 32.5 °F 30.07 in Calm   1.0 mph 59% 0.00 in 0.0 W/m2
04:01 46.0 °F 32.5 °F 30.07 in Calm   2.0 mph 59% 0.00 in 0.0 W/m2
04:06 46.0 °F 32.9 °F 30.07 in Calm   1.0 mph 60% 0.00 in 0.0 W/m2
04:11 45.9 °F 32.7 °F 30.07 in SE 0.9 mph 3.0 mph 60% 0.00 in 0.0 W/m2
04:16 45.9 °F 33.3 °F 30.07 in SE 0.9 mph 4.0 mph 61% 0.00 in 0.0 W/m2
04:21 45.9 °F 33.3 °F 30.07 in SE 0.9 mph 2.0 mph 61% 0.00 in 0.0 W/m2
04:26 45.9 °F 33.6 °F 30.07 in Calm     62% 0.00 in 0.0 W/m2
04:31 45.7 °F 33.4 °F 30.07 in Calm   1.0 mph 62% 0.00 in 0.0 W/m2
04:37 45.3 °F 33.4 °F 30.07 in Calm     63% 0.00 in 0.0 W/m2
04:42 45.0 °F 33.4 °F 30.08 in SE 2.0 mph 2.0 mph 64% 0.00 in 0.0 W/m2
04:47 44.4 °F 33.4 °F 30.07 in Calm   1.0 mph 65% 0.00 in 0.0 W/m2
04:52 44.1 °F 33.8 °F 30.07 in Calm   1.0 mph 67% 0.00 in 0.0 W/m2
04:57 43.5 °F 33.3 °F 30.07 in Calm   1.0 mph 67% 0.00 in 0.0 W/m2
05:02 43.3 °F 33.4 °F 30.07 in Calm   2.0 mph 68% 0.00 in 0.0 W/m2
05:07 43.3 °F 33.8 °F 30.07 in Calm     69% 0.00 in 0.0 W/m2
05:12 43.3 °F 33.8 °F 30.08 in Calm   1.0 mph 69% 0.00 in 0.0 W/m2
05:17 43.2 °F 33.6 °F 30.08 in SE 0.9 mph 2.0 mph 69% 0.00 in 0.0 W/m2
05:22 43.2 °F 33.6 °F 30.08 in Calm   1.0 mph 69% 0.00 in 0.0 W/m2
05:27 43.3 °F 33.8 °F 30.08 in Calm   1.0 mph 69% 0.00 in 0.0 W/m2
05:33 43.3 °F 33.8 °F 30.08 in SE 0.9 mph 2.0 mph 69% 0.00 in 0.0 W/m2
05:38 43.5 °F 34.0 °F 30.08 in Calm   1.0 mph 69% 0.00 in 0.0 W/m2
05:43 43.3 °F 33.1 °F 30.08 in SE 0.9 mph 2.0 mph 67% 0.00 in 0.0 W/m2
05:48 43.5 °F 33.6 °F 30.08 in SE 2.0 mph 2.0 mph 68% 0.00 in 0.0 W/m2
05:53 43.3 °F 33.4 °F 30.08 in Calm   1.0 mph 68% 0.00 in 0.0 W/m2
05:58 43.3 °F 33.8 °F 30.09 in SE 2.0 mph 2.0 mph 69% 0.00 in 0.0 W/m2
06:03 43.2 °F 33.6 °F 30.09 in Calm     69% 0.00 in 0.0 W/m2
06:08 43.0 °F 33.4 °F 30.09 in Calm     69% 0.00 in 0.0 W/m2
06:13 42.6 °F 33.4 °F 30.09 in Calm     70% 0.00 in 0.0 W/m2
06:18 42.4 °F 33.6 °F 30.09 in Calm   1.0 mph 71% 0.00 in 0.0 W/m2
06:23 42.3 °F 33.6 °F 30.09 in Calm     71% 0.00 in 0.0 W/m2
06:29 42.1 °F 33.8 °F 30.09 in Calm   2.0 mph 72% 0.00 in 0.0 W/m2
06:35 42.1 °F 33.4 °F 30.09 in Calm     71% 0.00 in 0.0 W/m2
06:40 42.1 °F 33.4 °F 30.09 in SE 0.9 mph 1.0 mph 71% 0.00 in 0.0 W/m2
06:45 42.1 °F 33.1 °F 30.09 in SE 0.9 mph 1.0 mph 70% 0.00 in 0.0 W/m2
06:50 42.1 °F 33.4 °F 30.10 in Calm     71% 0.00 in 0.0 W/m2
06:55 42.4 °F 33.4 °F 30.10 in Calm   1.0 mph 70% 0.00 in 0.0 W/m2
07:00 42.6 °F 33.4 °F 30.10 in Calm     70% 0.00 in 0.0 W/m2
07:05 42.8 °F 33.3 °F 30.10 in Calm   1.0 mph 69% 0.00 in 0.0 W/m2
07:10 43.0 °F 33.8 °F 30.11 in Calm   3.0 mph 70% 0.00 in 0.0 W/m2
07:15 43.2 °F 33.6 °F 30.11 in Calm   1.0 mph 69% 0.00 in 0.0 W/m2
07:21 43.3 °F 33.4 °F 30.11 in Calm     68% 0.00 in 0.0 W/m2
07:26 43.3 °F 33.4 °F 30.11 in Calm   3.0 mph 68% 0.00 in 5.0 W/m2
07:31 43.2 °F 33.6 °F 30.12 in Calm   1.0 mph 69% 0.00 in 7.0 W/m2
07:36 43.2 °F 34.0 °F 30.12 in Calm   2.0 mph 70% 0.00 in 9.0 W/m2
07:41 43.0 °F 33.8 °F 30.12 in Calm   1.0 mph 70% 0.00 in 11.0 W/m2
07:46 43.0 °F 33.8 °F 30.12 in SE 0.9 mph 4.0 mph 70% 0.00 in 12.0 W/m2
07:51 43.2 °F 34.0 °F 30.13 in Calm   3.0 mph 70% 0.00 in 12.0 W/m2
07:56 43.2 °F 34.3 °F 30.13 in Calm     71% 0.00 in 14.0 W/m2
08:01 43.0 °F 34.5 °F 30.13 in Calm   1.0 mph 72% 0.00 in 14.0 W/m2
08:07 43.0 °F 34.9 °F 30.14 in Calm     73% 0.00 in 16.0 W/m2
08:12 43.0 °F 34.9 °F 30.14 in Calm   1.0 mph 73% 0.00 in 18.0 W/m2
08:17 43.2 °F 35.4 °F 30.14 in Calm     74% 0.00 in 18.0 W/m2
08:23 43.5 °F 35.8 °F 30.14 in Calm     74% 0.00 in 19.0 W/m2
08:28 43.9 °F 36.5 °F 30.14 in Calm     75% 0.00 in 21.0 W/m2
08:33 44.2 °F 36.9 °F 30.14 in Calm     75% 0.00 in 21.0 W/m2
08:38 44.8 °F 37.0 °F 30.14 in SE 0.9 mph 3.0 mph 74% 0.00 in 23.0 W/m2
08:43 45.5 °F 37.4 °F 30.14 in Calm     73% 0.00 in 23.0 W/m2
08:48 46.2 °F 37.4 °F 30.15 in Calm   1.0 mph 71% 0.00 in 25.0 W/m2
08:53 46.9 °F 36.9 °F 30.15 in Calm   1.0 mph 68% 0.00 in 25.0 W/m2
08:58 47.8 °F 37.0 °F 30.15 in SE 0.9 mph 1.0 mph 66% 0.00 in 25.0 W/m2
09:03 48.6 °F 36.9 °F 30.15 in Calm   3.0 mph 64% 0.00 in 26.0 W/m2
09:09 49.8 °F 37.8 °F 30.15 in Calm   2.0 mph 63% 0.00 in 98.0 W/m2
09:14 51.3 °F 37.8 °F 30.15 in Calm   2.0 mph 60% 0.00 in 371.0 W/m2
09:19 52.5 °F 37.8 °F 30.15 in Calm   1.0 mph 57% 0.00 in 385.0 W/m2
09:24 54.3 °F 37.9 °F 30.15 in SE 0.9 mph 1.0 mph 54% 0.00 in 401.0 W/m2
09:29 56.1 °F 38.3 °F 30.16 in SE 0.9 mph 1.0 mph 51% 0.00 in 420.0 W/m2
09:34 57.9 °F 37.8 °F 30.16 in SE 0.9 mph 2.0 mph 47% 0.00 in 434.0 W/m2
09:39 59.5 °F 40.3 °F 30.15 in East 2.9 mph 10.0 mph 49% 0.00 in 452.0 W/m2
09:44 61.2 °F 41.4 °F 30.16 in NE 0.9 mph 5.0 mph 48% 0.00 in 466.0 W/m2
09:49 62.6 °F 41.5 °F 30.15 in Calm   4.0 mph 46% 0.00 in 482.0 W/m2
09:54 63.7 °F 41.4 °F 30.15 in NE 2.9 mph 7.0 mph 44% 0.00 in 496.0 W/m2
10:00 64.8 °F 41.7 °F 30.15 in NNE 4.0 mph 6.0 mph 43% 0.00 in 512.0 W/m2
10:05 65.5 °F 41.2 °F 30.15 in NE 2.0 mph 9.0 mph 41% 0.00 in 524.0 W/m2
10:10 65.8 °F 42.1 °F 30.15 in ENE 0.9 mph 5.0 mph 42% 0.00 in 538.0 W/m2
10:15 66.6 °F 40.8 °F 30.15 in Calm   9.0 mph 39% 0.00 in 550.0 W/m2
10:21 66.9 °F 41.2 °F 30.15 in ESE 0.9 mph 6.0 mph 39% 0.00 in 564.0 W/m2
10:26 67.3 °F 40.8 °F 30.14 in SE 4.9 mph 11.0 mph 38% 0.00 in 577.0 W/m2
10:31 67.5 °F 41.7 °F 30.15 in East 8.9 mph 11.0 mph 39% 0.00 in 589.0 W/m2
10:36 67.6 °F 41.7 °F 30.14 in ENE 2.0 mph 6.0 mph 39% 0.00 in 601.0 W/m2
10:42 67.8 °F 41.9 °F 30.14 in SE 2.9 mph 8.0 mph 39% 0.00 in 613.0 W/m2
10:47 68.2 °F 42.3 °F 30.14 in NE 4.9 mph 7.0 mph 39% 0.00 in 624.0 W/m2
10:52 68.5 °F 41.9 °F 30.14 in ENE 6.0 mph 7.0 mph 38% 0.00 in 633.0 W/m2
10:58 68.9 °F 43.0 °F 30.14 in Calm   8.0 mph 39% 0.00 in 642.0 W/m2
11:03 69.3 °F 43.2 °F 30.14 in NE 4.9 mph 7.0 mph 39% 0.00 in 652.0 W/m2
11:08 69.6 °F 42.3 °F 30.14 in ENE 2.0 mph 8.0 mph 37% 0.00 in 661.0 W/m2
11:13 70.0 °F 42.4 °F 30.13 in ENE 4.9 mph 6.0 mph 37% 0.00 in 671.0 W/m2
11:18 70.3 °F 43.5 °F 30.13 in East 2.9 mph 5.0 mph 38% 0.00 in 677.0 W/m2
11:23 70.7 °F 42.4 °F 30.13 in ENE 0.9 mph 8.0 mph 36% 0.00 in 686.0 W/m2
11:28 70.9 °F 41.9 °F 30.13 in ENE 6.9 mph 7.0 mph 35% 0.00 in 693.0 W/m2
11:33 71.2 °F 41.4 °F 30.13 in ENE 2.0 mph 6.0 mph 34% 0.00 in 700.0 W/m2
11:38 71.4 °F 39.2 °F 30.13 in ENE 2.9 mph 8.0 mph 31% 0.00 in 707.0 W/m2
11:43 71.8 °F 40.3 °F 30.13 in NNE 4.9 mph 7.0 mph 32% 0.00 in 712.0 W/m2
11:49 72.1 °F 39.9 °F 30.13 in NE 4.0 mph 7.0 mph 31% 0.00 in 719.0 W/m2
11:55 72.3 °F 39.9 °F 30.13 in NE 4.0 mph 5.0 mph 31% 0.00 in 722.0 W/m2
12:00 72.7 °F 40.3 °F 30.12 in NE 4.0 mph 7.0 mph 31% 0.00 in 726.0 W/m2
12:05 72.9 °F 39.6 °F 30.12 in NNE 4.9 mph 8.0 mph 30% 0.00 in 731.0 W/m2
12:10 72.9 °F 39.6 °F 30.12 in NE 8.1 mph 8.1 mph 30% 0.00 in 735.0 W/m2
Olympia, Windhoek, Namibia
Compliments of Weather Underground - 2.5 mb